Weather at Fort Good Hope Airport

Public forecast

Using degrees Celsius for public forecast. Weather courtesy of forecast.io.

Current aviation weather report (METAR) for Fort Good Hope Airport

Retrieved 2021/04/16 13:00 UTC (23 minutes ago):

CYGH 161300Z 30002KT 25SM SCT180 SCT240 M03/M04 A3046 RMK AC3CI1 SNW CVR/MEDIUM PACK SLP323

Aviation forecast (TAF) for Fort Good Hope Airport

Forecast is more than 12 hours old.

Retrieved 2021/04/15 18:00 UTC (19 hours ago):

TAF CYGH 151738Z 1518/1523 24005KT P6SM BKN100 RMK NXT FCST WILL BE ISSUED AT 161415Z